sensor_id;sensor_type;location;lat;lon;timestamp;temperature;humidity
72762;SHT30;60886;55.034;73.150;2023-04-06T00:01:28;3.48;65.99
72762;SHT30;60886;55.034;73.150;2023-04-06T00:04:29;3.45;66.00
72762;SHT30;60886;55.034;73.150;2023-04-06T00:07:31;3.48;65.84
72762;SHT30;60886;55.034;73.150;2023-04-06T00:10:34;3.46;65.98
72762;SHT30;60886;55.034;73.150;2023-04-06T00:13:36;3.42;66.29
72762;SHT30;60886;55.034;73.150;2023-04-06T00:16:37;3.42;66.37
72762;SHT30;60886;55.034;73.150;2023-04-06T00:19:39;3.42;66.48
72762;SHT30;60886;55.034;73.150;2023-04-06T00:22:40;3.35;66.67
72762;SHT30;60886;55.034;73.150;2023-04-06T00:25:42;3.31;66.55
72762;SHT30;60886;55.034;73.150;2023-04-06T00:28:44;3.34;66.87
72762;SHT30;60886;55.034;73.150;2023-04-06T00:31:45;3.32;66.85
72762;SHT30;60886;55.034;73.150;2023-04-06T00:34:47;3.29;66.81
72762;SHT30;60886;55.034;73.150;2023-04-06T00:37:48;3.36;66.68
72762;SHT30;60886;55.034;73.150;2023-04-06T00:40:50;3.31;66.95
72762;SHT30;60886;55.034;73.150;2023-04-06T00:43:51;3.22;67.19
72762;SHT30;60886;55.034;73.150;2023-04-06T00:47:01;3.25;67.36
72762;SHT30;60886;55.034;73.150;2023-04-06T00:50:11;3.24;67.58
72762;SHT30;60886;55.034;73.150;2023-04-06T00:53:13;3.28;67.19
72762;SHT30;60886;55.034;73.150;2023-04-06T00:56:18;3.24;67.56
72762;SHT30;60886;55.034;73.150;2023-04-06T00:59:31;3.26;67.67
72762;SHT30;60886;55.034;73.150;2023-04-06T01:02:35;3.35;67.69
72762;SHT30;60886;55.034;73.150;2023-04-06T01:05:37;3.38;67.45
72762;SHT30;60886;55.034;73.150;2023-04-06T01:08:45;3.43;67.19
72762;SHT30;60886;55.034;73.150;2023-04-06T01:11:53;3.49;67.38
72762;SHT30;60886;55.034;73.150;2023-04-06T01:14:57;3.49;67.35
72762;SHT30;60886;55.034;73.150;2023-04-06T01:18:08;3.48;66.94
72762;SHT30;60886;55.034;73.150;2023-04-06T01:21:15;3.45;67.64
72762;SHT30;60886;55.034;73.150;2023-04-06T01:24:31;3.49;67.53
72762;SHT30;60886;55.034;73.150;2023-04-06T01:27:39;3.58;67.20
72762;SHT30;60886;55.034;73.150;2023-04-06T01:30:46;3.59;67.00
72762;SHT30;60886;55.034;73.150;2023-04-06T01:34:19;3.62;66.87
72762;SHT30;60886;55.034;73.150;2023-04-06T01:37:21;3.67;67.05
72762;SHT30;60886;55.034;73.150;2023-04-06T01:40:24;3.76;67.02
72762;SHT30;60886;55.034;73.150;2023-04-06T01:43:27;3.86;66.61
72762;SHT30;60886;55.034;73.150;2023-04-06T01:46:36;3.99;66.26
72762;SHT30;60886;55.034;73.150;2023-04-06T01:49:40;4.03;65.97
72762;SHT30;60886;55.034;73.150;2023-04-06T01:52:54;4.11;65.95
72762;SHT30;60886;55.034;73.150;2023-04-06T01:56:01;4.21;65.68
72762;SHT30;60886;55.034;73.150;2023-04-06T01:59:09;4.31;65.47
72762;SHT30;60886;55.034;73.150;2023-04-06T02:02:15;4.41;65.29
72762;SHT30;60886;55.034;73.150;2023-04-06T02:05:30;4.50;65.45
72762;SHT30;60886;55.034;73.150;2023-04-06T02:08:35;4.71;64.99
72762;SHT30;60886;55.034;73.150;2023-04-06T02:11:37;4.91;64.62
72762;SHT30;60886;55.034;73.150;2023-04-06T02:14:39;5.08;63.75
72762;SHT30;60886;55.034;73.150;2023-04-06T02:17:46;5.22;63.44
72762;SHT30;60886;55.034;73.150;2023-04-06T02:20:58;5.40;63.18
72762;SHT30;60886;55.034;73.150;2023-04-06T02:23:59;5.66;62.35
72762;SHT30;60886;55.034;73.150;2023-04-06T02:27:02;5.87;62.50
72762;SHT30;60886;55.034;73.150;2023-04-06T02:30:11;6.10;63.19
72762;SHT30;60886;55.034;73.150;2023-04-06T02:33:12;6.35;61.08
72762;SHT30;60886;55.034;73.150;2023-04-06T02:36:18;6.55;61.62
72762;SHT30;60886;55.034;73.150;2023-04-06T02:39:25;6.83;61.25
72762;SHT30;60886;55.034;73.150;2023-04-06T02:42:26;7.08;58.66
72762;SHT30;60886;55.034;73.150;2023-04-06T02:45:33;7.30;58.03
72762;SHT30;60886;55.034;73.150;2023-04-06T02:48:36;7.52;57.46
72762;SHT30;60886;55.034;73.150;2023-04-06T02:51:38;7.79;57.56
72762;SHT30;60886;55.034;73.150;2023-04-06T02:55:11;8.02;56.35
72762;SHT30;60886;55.034;73.150;2023-04-06T02:58:23;8.19;55.53
72762;SHT30;60886;55.034;73.150;2023-04-06T03:01:28;8.37;56.30
72762;SHT30;60886;55.034;73.150;2023-04-06T03:04:34;8.56;55.01
72762;SHT30;60886;55.034;73.150;2023-04-06T03:07:38;8.67;54.76
72762;SHT30;60886;55.034;73.150;2023-04-06T03:10:40;8.67;55.10
72762;SHT30;60886;55.034;73.150;2023-04-06T03:13:46;8.80;55.03
72762;SHT30;60886;55.034;73.150;2023-04-06T03:16:58;8.98;54.39
72762;SHT30;60886;55.034;73.150;2023-04-06T03:20:00;9.15;55.12
72762;SHT30;60886;55.034;73.150;2023-04-06T03:23:03;9.28;54.29
72762;SHT30;60886;55.034;73.150;2023-04-06T03:26:10;9.42;54.87
72762;SHT30;60886;55.034;73.150;2023-04-06T03:29:11;9.62;56.40
72762;SHT30;60886;55.034;73.150;2023-04-06T03:32:13;9.85;54.60
72762;SHT30;60886;55.034;73.150;2023-04-06T03:35:16;10.13;54.98
72762;SHT30;60886;55.034;73.150;2023-04-06T03:38:17;10.30;53.23
72762;SHT30;60886;55.034;73.150;2023-04-06T03:41:19;10.29;53.11
72762;SHT30;60886;55.034;73.150;2023-04-06T03:44:29;10.48;53.22
72762;SHT30;60886;55.034;73.150;2023-04-06T03:47:36;10.61;54.38
72762;SHT30;60886;55.034;73.150;2023-04-06T03:50:40;10.72;53.10
72762;SHT30;60886;55.034;73.150;2023-04-06T03:53:42;10.94;53.17
72762;SHT30;60886;55.034;73.150;2023-04-06T03:56:43;11.09;51.95
72762;SHT30;60886;55.034;73.150;2023-04-06T03:59:44;11.20;51.41
72762;SHT30;60886;55.034;73.150;2023-04-06T04:02:46;11.30;51.78
72762;SHT30;60886;55.034;73.150;2023-04-06T04:05:47;11.38;51.33
72762;SHT30;60886;55.034;73.150;2023-04-06T04:08:48;11.46;52.09
72762;SHT30;60886;55.034;73.150;2023-04-06T04:11:50;11.60;51.27
72762;SHT30;60886;55.034;73.150;2023-04-06T04:14:52;11.66;50.05
72762;SHT30;60886;55.034;73.150;2023-04-06T04:17:53;11.76;50.09
72762;SHT30;60886;55.034;73.150;2023-04-06T04:20:54;11.79;50.58
72762;SHT30;60886;55.034;73.150;2023-04-06T04:23:57;11.95;51.77
72762;SHT30;60886;55.034;73.150;2023-04-06T04:26:59;12.18;50.30
72762;SHT30;60886;55.034;73.150;2023-04-06T04:30:11;12.31;49.81
72762;SHT30;60886;55.034;73.150;2023-04-06T04:33:12;12.41;47.65
72762;SHT30;60886;55.034;73.150;2023-04-06T04:36:15;12.45;48.26
72762;SHT30;60886;55.034;73.150;2023-04-06T04:39:18;12.58;49.92
72762;SHT30;60886;55.034;73.150;2023-04-06T04:42:25;12.69;47.63
72762;SHT30;60886;55.034;73.150;2023-04-06T04:45:40;12.61;46.97
72762;SHT30;60886;55.034;73.150;2023-04-06T04:48:52;12.75;47.88
72762;SHT30;60886;55.034;73.150;2023-04-06T04:51:53;12.89;47.45
72762;SHT30;60886;55.034;73.150;2023-04-06T04:55:18;12.95;48.32
72762;SHT30;60886;55.034;73.150;2023-04-06T04:58:22;13.03;47.09
72762;SHT30;60886;55.034;73.150;2023-04-06T05:01:28;13.08;48.17
72762;SHT30;60886;55.034;73.150;2023-04-06T05:04:30;13.19;48.51
72762;SHT30;60886;55.034;73.150;2023-04-06T05:07:35;13.30;45.36
72762;SHT30;60886;55.034;73.150;2023-04-06T05:10:37;13.19;47.04
72762;SHT30;60886;55.034;73.150;2023-04-06T05:13:44;13.19;46.77
72762;SHT30;60886;55.034;73.150;2023-04-06T05:16:51;13.20;46.16
72762;SHT30;60886;55.034;73.150;2023-04-06T05:19:53;13.20;47.40
72762;SHT30;60886;55.034;73.150;2023-04-06T05:23:08;13.24;46.39
72762;SHT30;60886;55.034;73.150;2023-04-06T05:26:10;13.20;46.39
72762;SHT30;60886;55.034;73.150;2023-04-06T05:29:12;13.26;45.67
72762;SHT30;60886;55.034;73.150;2023-04-06T05:32:19;13.35;45.67
72762;SHT30;60886;55.034;73.150;2023-04-06T05:35:25;13.51;47.42
72762;SHT30;60886;55.034;73.150;2023-04-06T05:38:30;13.54;46.78
72762;SHT30;60886;55.034;73.150;2023-04-06T05:41:38;13.60;47.73
72762;SHT30;60886;55.034;73.150;2023-04-06T05:44:42;13.50;47.50
72762;SHT30;60886;55.034;73.150;2023-04-06T05:47:48;13.56;48.41
72762;SHT30;60886;55.034;73.150;2023-04-06T05:50:58;13.60;47.45
72762;SHT30;60886;55.034;73.150;2023-04-06T05:54:15;13.59;46.32
72762;SHT30;60886;55.034;73.150;2023-04-06T05:57:17;13.64;46.55
72762;SHT30;60886;55.034;73.150;2023-04-06T06:00:20;13.69;45.76
72762;SHT30;60886;55.034;73.150;2023-04-06T06:03:32;13.74;46.61
72762;SHT30;60886;55.034;73.150;2023-04-06T06:06:39;13.77;46.51
72762;SHT30;60886;55.034;73.150;2023-04-06T06:09:48;13.71;46.63
72762;SHT30;60886;55.034;73.150;2023-04-06T06:13:05;13.88;46.58
72762;SHT30;60886;55.034;73.150;2023-04-06T06:16:18;13.77;47.34
72762;SHT30;60886;55.034;73.150;2023-04-06T06:19:21;13.88;45.74
72762;SHT30;60886;55.034;73.150;2023-04-06T06:22:25;13.98;46.53
72762;SHT30;60886;55.034;73.150;2023-04-06T06:25:32;14.04;48.96
72762;SHT30;60886;55.034;73.150;2023-04-06T06:28:43;14.00;49.82
72762;SHT30;60886;55.034;73.150;2023-04-06T06:31:46;13.90;49.15
72762;SHT30;60886;55.034;73.150;2023-04-06T06:34:48;13.85;49.07
72762;SHT30;60886;55.034;73.150;2023-04-06T06:37:50;13.91;48.70
72762;SHT30;60886;55.034;73.150;2023-04-06T06:40:55;13.93;49.36
72762;SHT30;60886;55.034;73.150;2023-04-06T06:43:59;13.97;49.63
72762;SHT30;60886;55.034;73.150;2023-04-06T06:47:06;14.00;50.30
72762;SHT30;60886;55.034;73.150;2023-04-06T06:50:11;14.11;48.84
72762;SHT30;60886;55.034;73.150;2023-04-06T06:53:12;14.15;49.07
72762;SHT30;60886;55.034;73.150;2023-04-06T06:56:13;14.21;48.51
72762;SHT30;60886;55.034;73.150;2023-04-06T06:59:17;14.21;49.54
72762;SHT30;60886;55.034;73.150;2023-04-06T07:02:18;14.28;48.94
72762;SHT30;60886;55.034;73.150;2023-04-06T07:05:20;14.31;48.39
72762;SHT30;60886;55.034;73.150;2023-04-06T07:08:23;14.25;49.06
72762;SHT30;60886;55.034;73.150;2023-04-06T07:11:25;14.34;49.29
72762;SHT30;60886;55.034;73.150;2023-04-06T07:14:28;14.42;50.29
72762;SHT30;60886;55.034;73.150;2023-04-06T07:17:34;14.49;50.34
72762;SHT30;60886;55.034;73.150;2023-04-06T07:20:35;14.51;49.96
72762;SHT30;60886;55.034;73.150;2023-04-06T07:23:39;14.61;49.85
72762;SHT30;60886;55.034;73.150;2023-04-06T07:26:42;14.62;51.21
72762;SHT30;60886;55.034;73.150;2023-04-06T07:29:43;14.69;49.17
72762;SHT30;60886;55.034;73.150;2023-04-06T07:32:45;14.69;50.39
72762;SHT30;60886;55.034;73.150;2023-04-06T07:35:47;14.79;49.23
72762;SHT30;60886;55.034;73.150;2023-04-06T07:38:50;14.79;49.35
72762;SHT30;60886;55.034;73.150;2023-04-06T07:41:53;14.89;50.61
72762;SHT30;60886;55.034;73.150;2023-04-06T07:44:55;14.87;49.33
72762;SHT30;60886;55.034;73.150;2023-04-06T07:48:00;14.96;47.89
72762;SHT30;60886;55.034;73.150;2023-04-06T07:51:06;15.03;47.62
72762;SHT30;60886;55.034;73.150;2023-04-06T07:54:11;15.09;46.87
72762;SHT30;60886;55.034;73.150;2023-04-06T07:57:13;15.14;46.96
72762;SHT30;60886;55.034;73.150;2023-04-06T08:00:14;15.16;46.48
72762;SHT30;60886;55.034;73.150;2023-04-06T08:03:22;15.23;45.54
72762;SHT30;60886;55.034;73.150;2023-04-06T08:06:31;15.26;47.05
72762;SHT30;60886;55.034;73.150;2023-04-06T08:09:36;15.26;46.83
72762;SHT30;60886;55.034;73.150;2023-04-06T08:12:37;15.27;46.68
72762;SHT30;60886;55.034;73.150;2023-04-06T08:15:39;15.26;47.54
72762;SHT30;60886;55.034;73.150;2023-04-06T08:18:40;15.29;45.49
72762;SHT30;60886;55.034;73.150;2023-04-06T08:21:41;15.26;47.14
72762;SHT30;60886;55.034;73.150;2023-04-06T08:24:43;15.37;48.04
72762;SHT30;60886;55.034;73.150;2023-04-06T08:27:45;15.43;47.82
72762;SHT30;60886;55.034;73.150;2023-04-06T08:30:47;15.36;49.26
72762;SHT30;60886;55.034;73.150;2023-04-06T08:33:48;15.33;48.99
72762;SHT30;60886;55.034;73.150;2023-04-06T08:36:49;15.40;46.84
72762;SHT30;60886;55.034;73.150;2023-04-06T08:39:51;15.41;48.21
72762;SHT30;60886;55.034;73.150;2023-04-06T08:42:55;15.46;48.75
72762;SHT30;60886;55.034;73.150;2023-04-06T08:46:03;15.43;50.43
72762;SHT30;60886;55.034;73.150;2023-04-06T08:49:04;15.53;47.31
72762;SHT30;60886;55.034;73.150;2023-04-06T08:52:07;15.51;47.61
72762;SHT30;60886;55.034;73.150;2023-04-06T08:55:14;15.60;45.43
72762;SHT30;60886;55.034;73.150;2023-04-06T08:58:15;15.60;45.76
72762;SHT30;60886;55.034;73.150;2023-04-06T09:01:21;15.64;45.32
72762;SHT30;60886;55.034;73.150;2023-04-06T09:04:22;15.64;45.70
72762;SHT30;60886;55.034;73.150;2023-04-06T09:07:24;15.62;45.19
72762;SHT30;60886;55.034;73.150;2023-04-06T09:10:25;15.64;46.13
72762;SHT30;60886;55.034;73.150;2023-04-06T09:13:51;15.71;44.94
72762;SHT30;60886;55.034;73.150;2023-04-06T09:16:52;15.64;44.05
72762;SHT30;60886;55.034;73.150;2023-04-06T09:19:54;15.60;44.79
72762;SHT30;60886;55.034;73.150;2023-04-06T09:23:05;15.71;46.16
72762;SHT30;60886;55.034;73.150;2023-04-06T09:26:08;15.82;43.44
72762;SHT30;60886;55.034;73.150;2023-04-06T09:29:10;15.92;43.27
72762;SHT30;60886;55.034;73.150;2023-04-06T09:32:12;15.91;44.10
72762;SHT30;60886;55.034;73.150;2023-04-06T09:35:18;15.78;45.70
72762;SHT30;60886;55.034;73.150;2023-04-06T09:38:23;15.91;47.56
72762;SHT30;60886;55.034;73.150;2023-04-06T09:41:28;15.90;47.12
72762;SHT30;60886;55.034;73.150;2023-04-06T09:44:31;15.97;47.14
72762;SHT30;60886;55.034;73.150;2023-04-06T09:47:33;15.91;46.79
72762;SHT30;60886;55.034;73.150;2023-04-06T09:50:36;16.00;46.95
72762;SHT30;60886;55.034;73.150;2023-04-06T09:53:41;15.95;47.10
72762;SHT30;60886;55.034;73.150;2023-04-06T09:56:47;16.00;47.13
72762;SHT30;60886;55.034;73.150;2023-04-06T10:00:01;15.92;46.63
72762;SHT30;60886;55.034;73.150;2023-04-06T10:03:30;15.92;46.86
72762;SHT30;60886;55.034;73.150;2023-04-06T10:06:38;15.90;46.62
72762;SHT30;60886;55.034;73.150;2023-04-06T10:09:43;15.91;45.89
72762;SHT30;60886;55.034;73.150;2023-04-06T10:12:47;15.78;46.20
72762;SHT30;60886;55.034;73.150;2023-04-06T10:15:49;15.80;46.45
72762;SHT30;60886;55.034;73.150;2023-04-06T10:19:03;15.82;46.67
72762;SHT30;60886;55.034;73.150;2023-04-06T10:22:08;15.84;46.96
72762;SHT30;60886;55.034;73.150;2023-04-06T10:25:16;15.87;48.06
72762;SHT30;60886;55.034;73.150;2023-04-06T10:28:19;15.84;46.93
72762;SHT30;60886;55.034;73.150;2023-04-06T10:31:28;15.90;46.88
72762;SHT30;60886;55.034;73.150;2023-04-06T10:34:35;15.82;47.07
72762;SHT30;60886;55.034;73.150;2023-04-06T10:38:06;15.82;46.67
72762;SHT30;60886;55.034;73.150;2023-04-06T10:41:10;15.82;47.20
72762;SHT30;60886;55.034;73.150;2023-04-06T10:44:23;15.77;46.66
72762;SHT30;60886;55.034;73.150;2023-04-06T10:47:39;15.80;46.66
72762;SHT30;60886;55.034;73.150;2023-04-06T10:50:46;15.90;46.59
72762;SHT30;60886;55.034;73.150;2023-04-06T10:53:48;15.85;46.60
72762;SHT30;60886;55.034;73.150;2023-04-06T10:56:50;15.84;48.11
72762;SHT30;60886;55.034;73.150;2023-04-06T10:59:53;15.84;47.46
72762;SHT30;60886;55.034;73.150;2023-04-06T11:03:01;15.84;48.21
72762;SHT30;60886;55.034;73.150;2023-04-06T11:06:03;15.97;47.05
72762;SHT30;60886;55.034;73.150;2023-04-06T11:09:28;15.97;47.40
72762;SHT30;60886;55.034;73.150;2023-04-06T11:12:41;16.02;47.45
72762;SHT30;60886;55.034;73.150;2023-04-06T11:15:53;15.98;47.93
72762;SHT30;60886;55.034;73.150;2023-04-06T11:19:04;15.97;48.30
72762;SHT30;60886;55.034;73.150;2023-04-06T11:22:07;16.06;48.97
72762;SHT30;60886;55.034;73.150;2023-04-06T11:25:11;16.16;47.27
72762;SHT30;60886;55.034;73.150;2023-04-06T11:28:19;16.16;46.78
72762;SHT30;60886;55.034;73.150;2023-04-06T11:31:26;16.16;45.37
72762;SHT30;60886;55.034;73.150;2023-04-06T11:34:34;16.06;45.86
72762;SHT30;60886;55.034;73.150;2023-04-06T11:37:39;16.12;46.05
72762;SHT30;60886;55.034;73.150;2023-04-06T11:40:41;16.06;46.22
72762;SHT30;60886;55.034;73.150;2023-04-06T11:43:54;16.13;45.08
72762;SHT30;60886;55.034;73.150;2023-04-06T11:46:57;16.13;45.52
72762;SHT30;60886;55.034;73.150;2023-04-06T11:50:09;16.09;45.98
72762;SHT30;60886;55.034;73.150;2023-04-06T11:53:16;16.02;46.05
72762;SHT30;60886;55.034;73.150;2023-04-06T11:56:28;15.94;46.43
72762;SHT30;60886;55.034;73.150;2023-04-06T11:59:34;15.98;45.87
72762;SHT30;60886;55.034;73.150;2023-04-06T12:02:36;15.98;46.42
72762;SHT30;60886;55.034;73.150;2023-04-06T12:05:39;16.00;46.38
72762;SHT30;60886;55.034;73.150;2023-04-06T12:08:40;16.00;46.63
72762;SHT30;60886;55.034;73.150;2023-04-06T12:11:52;15.97;47.00
72762;SHT30;60886;55.034;73.150;2023-04-06T12:14:53;15.94;46.60
72762;SHT30;60886;55.034;73.150;2023-04-06T12:17:55;15.90;46.74
72762;SHT30;60886;55.034;73.150;2023-04-06T12:21:02;15.74;47.10
72762;SHT30;60886;55.034;73.150;2023-04-06T12:24:13;15.75;47.39
72762;SHT30;60886;55.034;73.150;2023-04-06T12:27:15;15.74;47.70
72762;SHT30;60886;55.034;73.150;2023-04-06T12:30:26;15.68;47.89
72762;SHT30;60886;55.034;73.150;2023-04-06T12:33:30;15.64;48.29
72762;SHT30;60886;55.034;73.150;2023-04-06T12:36:31;15.60;48.68
72762;SHT30;60886;55.034;73.150;2023-04-06T12:39:33;15.51;48.84
72762;SHT30;60886;55.034;73.150;2023-04-06T12:42:44;15.46;49.77
72762;SHT30;60886;55.034;73.150;2023-04-06T12:45:47;15.39;50.06
72762;SHT30;60886;55.034;73.150;2023-04-06T12:48:48;15.31;50.15
72762;SHT30;60886;55.034;73.150;2023-04-06T12:52:02;15.24;50.30
72762;SHT30;60886;55.034;73.150;2023-04-06T12:55:10;15.19;50.67
72762;SHT30;60886;55.034;73.150;2023-04-06T12:58:13;15.11;51.16
72762;SHT30;60886;55.034;73.150;2023-04-06T13:01:26;15.07;51.64
72762;SHT30;60886;55.034;73.150;2023-04-06T13:04:28;14.99;52.07
72762;SHT30;60886;55.034;73.150;2023-04-06T13:07:34;14.95;51.70
72762;SHT30;60886;55.034;73.150;2023-04-06T13:10:36;14.92;51.79
72762;SHT30;60886;55.034;73.150;2023-04-06T13:13:43;14.86;51.89
72762;SHT30;60886;55.034;73.150;2023-04-06T13:16:54;14.77;51.98
72762;SHT30;60886;55.034;73.150;2023-04-06T13:19:56;14.76;51.93
72762;SHT30;60886;55.034;73.150;2023-04-06T13:23:07;14.68;52.35
72762;SHT30;60886;55.034;73.150;2023-04-06T13:26:09;14.59;52.65
72762;SHT30;60886;55.034;73.150;2023-04-06T13:29:15;14.54;52.91
72762;SHT30;60886;55.034;73.150;2023-04-06T13:32:17;14.44;53.46
72762;SHT30;60886;55.034;73.150;2023-04-06T13:35:18;14.34;53.88
72762;SHT30;60886;55.034;73.150;2023-04-06T13:38:20;14.24;54.59
72762;SHT30;60886;55.034;73.150;2023-04-06T13:41:31;14.14;55.09
72762;SHT30;60886;55.034;73.150;2023-04-06T13:44:33;14.08;55.10
72762;SHT30;60886;55.034;73.150;2023-04-06T13:47:34;14.04;55.29
72762;SHT30;60886;55.034;73.150;2023-04-06T13:50:46;14.00;55.85
72762;SHT30;60886;55.034;73.150;2023-04-06T13:53:47;13.97;56.11
72762;SHT30;60886;55.034;73.150;2023-04-06T13:56:53;13.91;56.49
72762;SHT30;60886;55.034;73.150;2023-04-06T13:59:54;13.83;56.69
72762;SHT30;60886;55.034;73.150;2023-04-06T14:02:56;13.80;57.06
72762;SHT30;60886;55.034;73.150;2023-04-06T14:05:58;13.71;57.83
72762;SHT30;60886;55.034;73.150;2023-04-06T14:08:59;13.69;58.16
72762;SHT30;60886;55.034;73.150;2023-04-06T14:12:05;13.61;58.44
72762;SHT30;60886;55.034;73.150;2023-04-06T14:15:11;13.60;58.64
72762;SHT30;60886;55.034;73.150;2023-04-06T14:18:13;13.59;58.89
72762;SHT30;60886;55.034;73.150;2023-04-06T14:21:14;13.57;59.20
72762;SHT30;60886;55.034;73.150;2023-04-06T14:24:17;13.50;59.29
72762;SHT30;60886;55.034;73.150;2023-04-06T14:27:19;13.40;59.11
72762;SHT30;60886;55.034;73.150;2023-04-06T14:30:21;13.35;59.77
72762;SHT30;60886;55.034;73.150;2023-04-06T14:33:23;13.27;60.27
72762;SHT30;60886;55.034;73.150;2023-04-06T14:36:24;13.20;60.44
72762;SHT30;60886;55.034;73.150;2023-04-06T14:39:28;13.15;60.62
72762;SHT30;60886;55.034;73.150;2023-04-06T14:42:29;13.02;61.08
72762;SHT30;60886;55.034;73.150;2023-04-06T14:45:33;12.99;61.65
72762;SHT30;60886;55.034;73.150;2023-04-06T14:48:36;12.96;61.93
72762;SHT30;60886;55.034;73.150;2023-04-06T14:51:37;12.88;62.35
72762;SHT30;60886;55.034;73.150;2023-04-06T14:54:45;12.82;62.84
72762;SHT30;60886;55.034;73.150;2023-04-06T14:57:46;12.75;62.08
72762;SHT30;60886;55.034;73.150;2023-04-06T15:00:48;12.62;62.73
72762;SHT30;60886;55.034;73.150;2023-04-06T15:03:50;12.51;62.82
72762;SHT30;60886;55.034;73.150;2023-04-06T15:06:51;12.45;63.49
72762;SHT30;60886;55.034;73.150;2023-04-06T15:09:53;12.31;63.67
72762;SHT30;60886;55.034;73.150;2023-04-06T15:12:54;12.31;63.14
72762;SHT30;60886;55.034;73.150;2023-04-06T15:16:06;12.27;63.12
72762;SHT30;60886;55.034;73.150;2023-04-06T15:19:07;12.27;63.27
72762;SHT30;60886;55.034;73.150;2023-04-06T15:22:10;12.21;62.91
72762;SHT30;60886;55.034;73.150;2023-04-06T15:25:22;12.10;63.06
72762;SHT30;60886;55.034;73.150;2023-04-06T15:28:23;12.04;63.44
72762;SHT30;60886;55.034;73.150;2023-04-06T15:31:25;12.00;63.52
72762;SHT30;60886;55.034;73.150;2023-04-06T15:34:36;11.91;63.48
72762;SHT30;60886;55.034;73.150;2023-04-06T15:37:38;11.82;63.66
72762;SHT30;60886;55.034;73.150;2023-04-06T15:40:47;11.77;64.11
72762;SHT30;60886;55.034;73.150;2023-04-06T15:43:49;11.72;64.09
72762;SHT30;60886;55.034;73.150;2023-04-06T15:47:03;11.67;64.29
72762;SHT30;60886;55.034;73.150;2023-04-06T15:50:11;11.62;64.28
72762;SHT30;60886;55.034;73.150;2023-04-06T15:53:18;11.56;64.66
72762;SHT30;60886;55.034;73.150;2023-04-06T15:56:19;11.53;64.53
72762;SHT30;60886;55.034;73.150;2023-04-06T15:59:25;11.47;64.77
72762;SHT30;60886;55.034;73.150;2023-04-06T16:02:27;11.42;65.05
72762;SHT30;60886;55.034;73.150;2023-04-06T16:05:29;11.35;65.30
72762;SHT30;60886;55.034;73.150;2023-04-06T16:08:31;11.32;65.34
72762;SHT30;60886;55.034;73.150;2023-04-06T16:11:32;11.20;65.71
72762;SHT30;60886;55.034;73.150;2023-04-06T16:14:34;11.15;65.60
72762;SHT30;60886;55.034;73.150;2023-04-06T16:17:35;11.09;66.22
72762;SHT30;60886;55.034;73.150;2023-04-06T16:20:42;10.99;66.02
72762;SHT30;60886;55.034;73.150;2023-04-06T16:23:47;10.94;66.70
72762;SHT30;60886;55.034;73.150;2023-04-06T16:26:49;10.95;67.05
72762;SHT30;60886;55.034;73.150;2023-04-06T16:29:50;10.91;67.56
72762;SHT30;60886;55.034;73.150;2023-04-06T16:33:02;10.78;67.68
72762;SHT30;60886;55.034;73.150;2023-04-06T16:36:03;10.58;67.62
72762;SHT30;60886;55.034;73.150;2023-04-06T16:39:05;10.50;68.03
72762;SHT30;60886;55.034;73.150;2023-04-06T16:42:07;10.40;68.87
72762;SHT30;60886;55.034;73.150;2023-04-06T16:45:18;10.41;68.69
72762;SHT30;60886;55.034;73.150;2023-04-06T16:48:19;10.40;68.84
72762;SHT30;60886;55.034;73.150;2023-04-06T16:51:21;10.40;69.12
72762;SHT30;60886;55.034;73.150;2023-04-06T16:54:23;10.40;69.35
72762;SHT30;60886;55.034;73.150;2023-04-06T16:57:24;10.30;69.56
72762;SHT30;60886;55.034;73.150;2023-04-06T17:00:29;10.16;69.74
72762;SHT30;60886;55.034;73.150;2023-04-06T17:03:40;10.04;69.89
72762;SHT30;60886;55.034;73.150;2023-04-06T17:06:44;10.06;70.05
72762;SHT30;60886;55.034;73.150;2023-04-06T17:09:55;10.02;70.01
72762;SHT30;60886;55.034;73.150;2023-04-06T17:13:02;10.02;69.38
72762;SHT30;60886;55.034;73.150;2023-04-06T17:16:04;9.82;69.62
72762;SHT30;60886;55.034;73.150;2023-04-06T17:19:06;9.62;68.23
72762;SHT30;60886;55.034;73.150;2023-04-06T17:22:12;9.55;68.47
72762;SHT30;60886;55.034;73.150;2023-04-06T17:25:15;9.58;68.52
72762;SHT30;60886;55.034;73.150;2023-04-06T17:28:26;9.56;68.60
72762;SHT30;60886;55.034;73.150;2023-04-06T17:31:27;9.56;68.20
72762;SHT30;60886;55.034;73.150;2023-04-06T17:34:29;9.55;67.79
72762;SHT30;60886;55.034;73.150;2023-04-06T17:37:30;9.48;65.76
72762;SHT30;60886;55.034;73.150;2023-04-06T17:40:32;9.35;65.14
72762;SHT30;60886;55.034;73.150;2023-04-06T17:43:33;9.24;63.65
72762;SHT30;60886;55.034;73.150;2023-04-06T17:46:35;9.14;63.03
72762;SHT30;60886;55.034;73.150;2023-04-06T17:49:36;9.01;62.92
72762;SHT30;60886;55.034;73.150;2023-04-06T17:52:37;8.87;64.40
72762;SHT30;60886;55.034;73.150;2023-04-06T17:55:39;8.67;63.76
72762;SHT30;60886;55.034;73.150;2023-04-06T17:58:40;8.32;63.64
72762;SHT30;60886;55.034;73.150;2023-04-06T18:01:46;8.06;64.03
72762;SHT30;60886;55.034;73.150;2023-04-06T18:04:52;7.82;64.90
72762;SHT30;60886;55.034;73.150;2023-04-06T18:07:53;7.65;65.48
72762;SHT30;60886;55.034;73.150;2023-04-06T18:10:55;7.52;65.37
72762;SHT30;60886;55.034;73.150;2023-04-06T18:13:57;7.35;65.78
72762;SHT30;60886;55.034;73.150;2023-04-06T18:16:58;7.18;65.71
72762;SHT30;60886;55.034;73.150;2023-04-06T18:20:00;7.07;66.21
72762;SHT30;60886;55.034;73.150;2023-04-06T18:23:01;6.95;66.45
72762;SHT30;60886;55.034;73.150;2023-04-06T18:26:04;6.85;66.94
72762;SHT30;60886;55.034;73.150;2023-04-06T18:29:05;6.72;66.98
72762;SHT30;60886;55.034;73.150;2023-04-06T18:32:07;6.61;67.51
72762;SHT30;60886;55.034;73.150;2023-04-06T18:35:10;6.46;67.86
72762;SHT30;60886;55.034;73.150;2023-04-06T18:38:13;6.32;67.93
72762;SHT30;60886;55.034;73.150;2023-04-06T18:41:15;6.22;68.22
72762;SHT30;60886;55.034;73.150;2023-04-06T18:44:18;6.11;68.72
72762;SHT30;60886;55.034;73.150;2023-04-06T18:47:19;5.98;68.82
72762;SHT30;60886;55.034;73.150;2023-04-06T18:50:21;5.90;69.00
72762;SHT30;60886;55.034;73.150;2023-04-06T18:53:22;5.78;69.34
72762;SHT30;60886;55.034;73.150;2023-04-06T18:56:25;5.64;69.67
72762;SHT30;60886;55.034;73.150;2023-04-06T18:59:26;5.53;69.85
72762;SHT30;60886;55.034;73.150;2023-04-06T19:02:33;5.40;70.14
72762;SHT30;60886;55.034;73.150;2023-04-06T19:05:34;5.33;70.31
72762;SHT30;60886;55.034;73.150;2023-04-06T19:08:36;5.26;70.59
72762;SHT30;60886;55.034;73.150;2023-04-06T19:11:37;5.13;70.23
72762;SHT30;60886;55.034;73.150;2023-04-06T19:14:39;5.04;69.95